sensor_id;sensor_type;location;lat;lon;timestamp;P1;durP1;ratioP1;P2;durP2;ratioP2
25123;SDS011;13104;51.030;4.686;2023-04-03T00:01:33;11.23;;;7.95;;
25123;SDS011;13104;51.030;4.686;2023-04-03T00:04:00;11.38;;;8.02;;
25123;SDS011;13104;51.030;4.686;2023-04-03T00:06:26;13.00;;;7.10;;
25123;SDS011;13104;51.030;4.686;2023-04-03T00:08:52;16.90;;;8.38;;
25123;SDS011;13104;51.030;4.686;2023-04-03T00:11:18;14.50;;;7.57;;
25123;SDS011;13104;51.030;4.686;2023-04-03T00:13:45;16.58;;;7.90;;
25123;SDS011;13104;51.030;4.686;2023-04-03T00:16:11;13.90;;;7.38;;
25123;SDS011;13104;51.030;4.686;2023-04-03T00:18:38;11.75;;;7.55;;
25123;SDS011;13104;51.030;4.686;2023-04-03T00:21:05;11.07;;;7.68;;
25123;SDS011;13104;51.030;4.686;2023-04-03T00:23:31;13.00;;;7.60;;
25123;SDS011;13104;51.030;4.686;2023-04-03T00:25:58;14.32;;;7.15;;
25123;SDS011;13104;51.030;4.686;2023-04-03T00:28:24;14.82;;;7.45;;
25123;SDS011;13104;51.030;4.686;2023-04-03T00:30:51;12.48;;;7.63;;
25123;SDS011;13104;51.030;4.686;2023-04-03T00:33:18;11.45;;;7.25;;
25123;SDS011;13104;51.030;4.686;2023-04-03T00:35:46;12.52;;;7.32;;
25123;SDS011;13104;51.030;4.686;2023-04-03T00:38:13;13.88;;;7.38;;
25123;SDS011;13104;51.030;4.686;2023-04-03T00:40:42;14.73;;;7.22;;
25123;SDS011;13104;51.030;4.686;2023-04-03T00:43:11;9.70;;;6.85;;
25123;SDS011;13104;51.030;4.686;2023-04-03T00:45:38;14.40;;;7.15;;
25123;SDS011;13104;51.030;4.686;2023-04-03T00:48:05;12.20;;;7.03;;
25123;SDS011;13104;51.030;4.686;2023-04-03T00:50:33;10.38;;;6.70;;
25123;SDS011;13104;51.030;4.686;2023-04-03T00:53:00;11.95;;;6.97;;
25123;SDS011;13104;51.030;4.686;2023-04-03T00:55:27;12.57;;;6.88;;
25123;SDS011;13104;51.030;4.686;2023-04-03T00:57:53;9.07;;;6.72;;
25123;SDS011;13104;51.030;4.686;2023-04-03T01:00:21;15.70;;;7.15;;
25123;SDS011;13104;51.030;4.686;2023-04-03T01:02:48;10.15;;;7.32;;
25123;SDS011;13104;51.030;4.686;2023-04-03T01:05:15;11.13;;;6.75;;
25123;SDS011;13104;51.030;4.686;2023-04-03T01:07:42;12.00;;;6.93;;
25123;SDS011;13104;51.030;4.686;2023-04-03T01:10:09;9.68;;;6.95;;
25123;SDS011;13104;51.030;4.686;2023-04-03T01:12:37;11.25;;;6.38;;
25123;SDS011;13104;51.030;4.686;2023-04-03T01:15:08;13.65;;;6.82;;
25123;SDS011;13104;51.030;4.686;2023-04-03T01:25:27;13.25;;;6.97;;
25123;SDS011;13104;51.030;4.686;2023-04-03T01:27:53;12.30;;;6.65;;
25123;SDS011;13104;51.030;4.686;2023-04-03T01:30:20;14.90;;;7.30;;
25123;SDS011;13104;51.030;4.686;2023-04-03T01:32:46;12.90;;;7.03;;
25123;SDS011;13104;51.030;4.686;2023-04-03T01:35:13;9.15;;;6.45;;
25123;SDS011;13104;51.030;4.686;2023-04-03T01:37:39;13.52;;;7.32;;
25123;SDS011;13104;51.030;4.686;2023-04-03T01:40:05;10.10;;;6.18;;
25123;SDS011;13104;51.030;4.686;2023-04-03T01:42:32;14.07;;;7.30;;
25123;SDS011;13104;51.030;4.686;2023-04-03T01:44:59;13.60;;;6.68;;
25123;SDS011;13104;51.030;4.686;2023-04-03T01:47:25;12.88;;;6.55;;
25123;SDS011;13104;51.030;4.686;2023-04-03T01:49:51;12.00;;;7.20;;
25123;SDS011;13104;51.030;4.686;2023-04-03T01:52:17;13.63;;;6.80;;
25123;SDS011;13104;51.030;4.686;2023-04-03T01:54:44;12.88;;;6.93;;
25123;SDS011;13104;51.030;4.686;2023-04-03T01:57:10;11.30;;;6.45;;
25123;SDS011;13104;51.030;4.686;2023-04-03T01:59:38;9.82;;;6.57;;
25123;SDS011;13104;51.030;4.686;2023-04-03T02:02:04;12.15;;;6.80;;
25123;SDS011;13104;51.030;4.686;2023-04-03T02:04:30;12.43;;;6.50;;
25123;SDS011;13104;51.030;4.686;2023-04-03T02:06:57;11.88;;;7.40;;
25123;SDS011;13104;51.030;4.686;2023-04-03T02:09:23;11.18;;;6.85;;
25123;SDS011;13104;51.030;4.686;2023-04-03T02:11:49;15.82;;;7.35;;
25123;SDS011;13104;51.030;4.686;2023-04-03T02:14:15;12.57;;;6.80;;
25123;SDS011;13104;51.030;4.686;2023-04-03T02:16:41;13.65;;;7.20;;
25123;SDS011;13104;51.030;4.686;2023-04-03T02:19:07;10.45;;;6.38;;
25123;SDS011;13104;51.030;4.686;2023-04-03T02:21:34;10.48;;;6.93;;
25123;SDS011;13104;51.030;4.686;2023-04-03T02:24:00;10.50;;;6.78;;
25123;SDS011;13104;51.030;4.686;2023-04-03T02:26:26;13.52;;;7.25;;
25123;SDS011;13104;51.030;4.686;2023-04-03T02:28:53;14.43;;;6.90;;
25123;SDS011;13104;51.030;4.686;2023-04-03T02:31:19;12.85;;;7.25;;
25123;SDS011;13104;51.030;4.686;2023-04-03T02:33:45;14.98;;;6.10;;
25123;SDS011;13104;51.030;4.686;2023-04-03T02:36:11;10.77;;;6.93;;
25123;SDS011;13104;51.030;4.686;2023-04-03T02:38:38;11.02;;;7.10;;
25123;SDS011;13104;51.030;4.686;2023-04-03T02:41:08;10.50;;;7.22;;
25123;SDS011;13104;51.030;4.686;2023-04-03T02:43:35;14.10;;;7.05;;
25123;SDS011;13104;51.030;4.686;2023-04-03T02:46:01;13.50;;;7.40;;
25123;SDS011;13104;51.030;4.686;2023-04-03T02:48:27;13.82;;;7.32;;
25123;SDS011;13104;51.030;4.686;2023-04-03T02:50:54;12.25;;;7.00;;
25123;SDS011;13104;51.030;4.686;2023-04-03T02:53:20;15.10;;;7.80;;
25123;SDS011;13104;51.030;4.686;2023-04-03T02:55:46;11.45;;;7.05;;
25123;SDS011;13104;51.030;4.686;2023-04-03T02:58:12;13.25;;;7.78;;
25123;SDS011;13104;51.030;4.686;2023-04-03T03:00:39;12.32;;;7.28;;
25123;SDS011;13104;51.030;4.686;2023-04-03T03:03:05;13.48;;;7.05;;
25123;SDS011;13104;51.030;4.686;2023-04-03T03:05:32;13.45;;;7.72;;
25123;SDS011;13104;51.030;4.686;2023-04-03T03:07:58;11.82;;;7.53;;
25123;SDS011;13104;51.030;4.686;2023-04-03T03:10:24;16.60;;;8.15;;
25123;SDS011;13104;51.030;4.686;2023-04-03T03:12:51;11.88;;;7.32;;
25123;SDS011;13104;51.030;4.686;2023-04-03T03:15:17;12.57;;;7.50;;
25123;SDS011;13104;51.030;4.686;2023-04-03T03:17:44;11.23;;;7.75;;
25123;SDS011;13104;51.030;4.686;2023-04-03T03:20:10;10.45;;;7.45;;
25123;SDS011;13104;51.030;4.686;2023-04-03T03:22:39;10.73;;;7.65;;
25123;SDS011;13104;51.030;4.686;2023-04-03T03:25:05;14.70;;;7.80;;
25123;SDS011;13104;51.030;4.686;2023-04-03T03:27:31;14.20;;;7.25;;
25123;SDS011;13104;51.030;4.686;2023-04-03T03:29:57;16.17;;;8.50;;
25123;SDS011;13104;51.030;4.686;2023-04-03T03:32:23;12.10;;;8.15;;
25123;SDS011;13104;51.030;4.686;2023-04-03T03:34:50;12.98;;;7.20;;
25123;SDS011;13104;51.030;4.686;2023-04-03T03:37:16;10.88;;;7.10;;
25123;SDS011;13104;51.030;4.686;2023-04-03T03:39:42;11.40;;;7.53;;
25123;SDS011;13104;51.030;4.686;2023-04-03T03:42:08;13.55;;;8.13;;
25123;SDS011;13104;51.030;4.686;2023-04-03T03:44:34;14.55;;;7.40;;
25123;SDS011;13104;51.030;4.686;2023-04-03T03:47:01;11.23;;;7.60;;
25123;SDS011;13104;51.030;4.686;2023-04-03T03:49:28;15.77;;;7.68;;
25123;SDS011;13104;51.030;4.686;2023-04-03T03:51:54;13.70;;;7.22;;
25123;SDS011;13104;51.030;4.686;2023-04-03T03:54:21;12.20;;;7.70;;
25123;SDS011;13104;51.030;4.686;2023-04-03T03:56:47;13.32;;;7.93;;
25123;SDS011;13104;51.030;4.686;2023-04-03T03:59:13;10.48;;;7.25;;
25123;SDS011;13104;51.030;4.686;2023-04-03T04:01:39;15.07;;;8.20;;
25123;SDS011;13104;51.030;4.686;2023-04-03T04:04:05;13.40;;;8.05;;
25123;SDS011;13104;51.030;4.686;2023-04-03T04:06:31;12.45;;;7.72;;
25123;SDS011;13104;51.030;4.686;2023-04-03T04:08:57;13.68;;;7.90;;
25123;SDS011;13104;51.030;4.686;2023-04-03T04:11:23;16.05;;;8.00;;
25123;SDS011;13104;51.030;4.686;2023-04-03T04:13:49;12.25;;;8.15;;
25123;SDS011;13104;51.030;4.686;2023-04-03T04:16:16;12.15;;;8.18;;
25123;SDS011;13104;51.030;4.686;2023-04-03T04:18:42;15.70;;;8.95;;
25123;SDS011;13104;51.030;4.686;2023-04-03T04:21:08;17.50;;;9.00;;
25123;SDS011;13104;51.030;4.686;2023-04-03T04:23:34;16.42;;;8.98;;
25123;SDS011;13104;51.030;4.686;2023-04-03T04:26:01;14.25;;;8.88;;
25123;SDS011;13104;51.030;4.686;2023-04-03T04:28:27;14.73;;;8.73;;
25123;SDS011;13104;51.030;4.686;2023-04-03T04:30:54;17.90;;;9.27;;
25123;SDS011;13104;51.030;4.686;2023-04-03T04:33:20;14.93;;;8.48;;
25123;SDS011;13104;51.030;4.686;2023-04-03T04:35:47;13.32;;;8.30;;
25123;SDS011;13104;51.030;4.686;2023-04-03T04:38:13;15.52;;;9.10;;
25123;SDS011;13104;51.030;4.686;2023-04-03T04:40:39;14.00;;;9.48;;
25123;SDS011;13104;51.030;4.686;2023-04-03T04:43:06;14.80;;;9.63;;
25123;SDS011;13104;51.030;4.686;2023-04-03T04:45:32;16.23;;;9.95;;
25123;SDS011;13104;51.030;4.686;2023-04-03T04:47:58;16.30;;;9.27;;
25123;SDS011;13104;51.030;4.686;2023-04-03T04:50:24;16.23;;;9.77;;
25123;SDS011;13104;51.030;4.686;2023-04-03T04:52:50;17.42;;;10.05;;
25123;SDS011;13104;51.030;4.686;2023-04-03T04:55:17;16.98;;;10.98;;
25123;SDS011;13104;51.030;4.686;2023-04-03T04:57:43;18.45;;;10.73;;
25123;SDS011;13104;51.030;4.686;2023-04-03T05:00:09;14.10;;;9.20;;
25123;SDS011;13104;51.030;4.686;2023-04-03T05:02:35;14.88;;;10.00;;
25123;SDS011;13104;51.030;4.686;2023-04-03T05:05:02;16.85;;;10.05;;
25123;SDS011;13104;51.030;4.686;2023-04-03T05:07:28;15.82;;;9.73;;
25123;SDS011;13104;51.030;4.686;2023-04-03T05:09:55;13.93;;;9.38;;
25123;SDS011;13104;51.030;4.686;2023-04-03T05:12:21;14.45;;;9.90;;
25123;SDS011;13104;51.030;4.686;2023-04-03T05:14:47;17.02;;;10.65;;
25123;SDS011;13104;51.030;4.686;2023-04-03T05:17:13;23.17;;;10.20;;
25123;SDS011;13104;51.030;4.686;2023-04-03T05:19:39;19.35;;;10.95;;
25123;SDS011;13104;51.030;4.686;2023-04-03T05:22:05;15.75;;;10.90;;
25123;SDS011;13104;51.030;4.686;2023-04-03T05:24:31;19.63;;;10.90;;
25123;SDS011;13104;51.030;4.686;2023-04-03T05:26:58;17.17;;;10.45;;
25123;SDS011;13104;51.030;4.686;2023-04-03T05:29:24;16.27;;;10.57;;
25123;SDS011;13104;51.030;4.686;2023-04-03T05:31:50;20.60;;;10.82;;
25123;SDS011;13104;51.030;4.686;2023-04-03T05:34:17;16.95;;;9.70;;
25123;SDS011;13104;51.030;4.686;2023-04-03T05:36:43;20.08;;;10.70;;
25123;SDS011;13104;51.030;4.686;2023-04-03T05:39:09;14.55;;;10.10;;
25123;SDS011;13104;51.030;4.686;2023-04-03T05:41:36;14.95;;;9.75;;
25123;SDS011;13104;51.030;4.686;2023-04-03T05:44:02;14.63;;;10.18;;
25123;SDS011;13104;51.030;4.686;2023-04-03T05:46:28;18.73;;;11.02;;
25123;SDS011;13104;51.030;4.686;2023-04-03T05:48:54;18.80;;;10.75;;
25123;SDS011;13104;51.030;4.686;2023-04-03T05:51:25;15.90;;;10.10;;
25123;SDS011;13104;51.030;4.686;2023-04-03T05:53:55;16.38;;;10.13;;
25123;SDS011;13104;51.030;4.686;2023-04-03T05:56:22;19.52;;;11.27;;
25123;SDS011;13104;51.030;4.686;2023-04-03T05:58:48;22.00;;;12.68;;
25123;SDS011;13104;51.030;4.686;2023-04-03T06:01:14;18.50;;;11.55;;
25123;SDS011;13104;51.030;4.686;2023-04-03T06:03:41;16.48;;;10.57;;
25123;SDS011;13104;51.030;4.686;2023-04-03T06:06:07;18.00;;;10.65;;
25123;SDS011;13104;51.030;4.686;2023-04-03T06:08:33;16.27;;;9.77;;
25123;SDS011;13104;51.030;4.686;2023-04-03T06:11:00;18.83;;;10.60;;
25123;SDS011;13104;51.030;4.686;2023-04-03T06:13:27;17.80;;;11.05;;
25123;SDS011;13104;51.030;4.686;2023-04-03T06:15:53;21.80;;;11.30;;
25123;SDS011;13104;51.030;4.686;2023-04-03T06:18:20;16.27;;;11.25;;
25123;SDS011;13104;51.030;4.686;2023-04-03T06:20:46;16.92;;;11.48;;
25123;SDS011;13104;51.030;4.686;2023-04-03T06:23:12;19.15;;;10.98;;
25123;SDS011;13104;51.030;4.686;2023-04-03T06:25:38;21.45;;;12.30;;
25123;SDS011;13104;51.030;4.686;2023-04-03T06:28:05;19.75;;;11.70;;
25123;SDS011;13104;51.030;4.686;2023-04-03T06:30:34;19.13;;;11.35;;
25123;SDS011;13104;51.030;4.686;2023-04-03T06:33:00;18.40;;;11.27;;
25123;SDS011;13104;51.030;4.686;2023-04-03T06:35:26;21.23;;;10.50;;
25123;SDS011;13104;51.030;4.686;2023-04-03T06:37:55;27.05;;;11.32;;
25123;SDS011;13104;51.030;4.686;2023-04-03T06:40:22;21.23;;;11.00;;
25123;SDS011;13104;51.030;4.686;2023-04-03T06:42:49;15.27;;;10.75;;
25123;SDS011;13104;51.030;4.686;2023-04-03T06:45:15;21.85;;;11.23;;
25123;SDS011;13104;51.030;4.686;2023-04-03T06:47:42;20.00;;;10.98;;
25123;SDS011;13104;51.030;4.686;2023-04-03T06:50:09;20.63;;;11.20;;
25123;SDS011;13104;51.030;4.686;2023-04-03T06:52:36;18.92;;;10.70;;
25123;SDS011;13104;51.030;4.686;2023-04-03T06:55:04;16.42;;;9.68;;
25123;SDS011;13104;51.030;4.686;2023-04-03T06:57:31;15.38;;;10.13;;
25123;SDS011;13104;51.030;4.686;2023-04-03T06:59:57;14.70;;;9.63;;
25123;SDS011;13104;51.030;4.686;2023-04-03T07:02:23;18.70;;;10.52;;
25123;SDS011;13104;51.030;4.686;2023-04-03T07:04:49;19.55;;;10.90;;
25123;SDS011;13104;51.030;4.686;2023-04-03T07:07:15;18.73;;;9.82;;
25123;SDS011;13104;51.030;4.686;2023-04-03T07:09:42;13.30;;;8.98;;
25123;SDS011;13104;51.030;4.686;2023-04-03T07:12:08;22.35;;;9.68;;
25123;SDS011;13104;51.030;4.686;2023-04-03T07:14:35;20.25;;;9.82;;
25123;SDS011;13104;51.030;4.686;2023-04-03T07:17:02;20.33;;;9.85;;
25123;SDS011;13104;51.030;4.686;2023-04-03T07:19:30;15.05;;;8.40;;
25123;SDS011;13104;51.030;4.686;2023-04-03T07:21:56;13.98;;;7.70;;
25123;SDS011;13104;51.030;4.686;2023-04-03T07:24:22;14.02;;;7.70;;
25123;SDS011;13104;51.030;4.686;2023-04-03T07:26:49;11.23;;;6.93;;
25123;SDS011;13104;51.030;4.686;2023-04-03T07:29:15;11.60;;;6.95;;
25123;SDS011;13104;51.030;4.686;2023-04-03T07:31:41;13.27;;;6.63;;
25123;SDS011;13104;51.030;4.686;2023-04-03T07:34:09;12.73;;;6.43;;
25123;SDS011;13104;51.030;4.686;2023-04-03T07:36:35;11.85;;;6.10;;
25123;SDS011;13104;51.030;4.686;2023-04-03T07:39:02;11.77;;;6.70;;
25123;SDS011;13104;51.030;4.686;2023-04-03T07:41:28;17.73;;;5.82;;
25123;SDS011;13104;51.030;4.686;2023-04-03T07:43:55;18.98;;;5.88;;
25123;SDS011;13104;51.030;4.686;2023-04-03T07:46:21;11.00;;;5.65;;
25123;SDS011;13104;51.030;4.686;2023-04-03T07:48:47;10.70;;;5.53;;
25123;SDS011;13104;51.030;4.686;2023-04-03T07:51:14;9.35;;;5.55;;
25123;SDS011;13104;51.030;4.686;2023-04-03T07:53:40;8.05;;;5.03;;
25123;SDS011;13104;51.030;4.686;2023-04-03T07:56:06;9.40;;;4.15;;
25123;SDS011;13104;51.030;4.686;2023-04-03T07:58:33;11.40;;;4.85;;
25123;SDS011;13104;51.030;4.686;2023-04-03T08:00:59;9.20;;;4.45;;
25123;SDS011;13104;51.030;4.686;2023-04-03T08:03:26;11.55;;;4.65;;
25123;SDS011;13104;51.030;4.686;2023-04-03T08:05:52;11.18;;;4.82;;
25123;SDS011;13104;51.030;4.686;2023-04-03T08:08:19;11.25;;;4.75;;
25123;SDS011;13104;51.030;4.686;2023-04-03T08:10:52;10.25;;;4.35;;
25123;SDS011;13104;51.030;4.686;2023-04-03T08:13:19;6.20;;;4.20;;
25123;SDS011;13104;51.030;4.686;2023-04-03T08:15:46;9.82;;;3.92;;
25123;SDS011;13104;51.030;4.686;2023-04-03T08:18:12;6.88;;;3.70;;
25123;SDS011;13104;51.030;4.686;2023-04-03T08:20:38;8.20;;;3.40;;
25123;SDS011;13104;51.030;4.686;2023-04-03T08:23:05;8.85;;;3.88;;
25123;SDS011;13104;51.030;4.686;2023-04-03T08:25:32;10.73;;;4.38;;
25123;SDS011;13104;51.030;4.686;2023-04-03T08:27:58;10.50;;;4.05;;
25123;SDS011;13104;51.030;4.686;2023-04-03T08:30:24;7.82;;;3.45;;
25123;SDS011;13104;51.030;4.686;2023-04-03T08:32:51;9.85;;;3.78;;
25123;SDS011;13104;51.030;4.686;2023-04-03T08:35:17;5.82;;;2.95;;
25123;SDS011;13104;51.030;4.686;2023-04-03T08:37:44;7.28;;;3.00;;
25123;SDS011;13104;51.030;4.686;2023-04-03T08:40:13;6.38;;;3.20;;
25123;SDS011;13104;51.030;4.686;2023-04-03T08:50:39;8.82;;;3.25;;
25123;SDS011;13104;51.030;4.686;2023-04-03T08:53:06;6.90;;;3.13;;
25123;SDS011;13104;51.030;4.686;2023-04-03T08:55:39;6.60;;;2.58;;
25123;SDS011;13104;51.030;4.686;2023-04-03T08:58:06;7.78;;;3.30;;
25123;SDS011;13104;51.030;4.686;2023-04-03T09:00:44;6.55;;;3.00;;
25123;SDS011;13104;51.030;4.686;2023-04-03T09:03:14;7.50;;;2.42;;
25123;SDS011;13104;51.030;4.686;2023-04-03T09:10:37;6.00;;;2.75;;
25123;SDS011;13104;51.030;4.686;2023-04-03T09:13:24;8.02;;;2.92;;
25123;SDS011;13104;51.030;4.686;2023-04-03T09:15:53;9.35;;;2.97;;
25123;SDS011;13104;51.030;4.686;2023-04-03T09:18:19;4.85;;;2.58;;
25123;SDS011;13104;51.030;4.686;2023-04-03T09:23:30;7.82;;;2.83;;
25123;SDS011;13104;51.030;4.686;2023-04-03T09:26:02;7.95;;;2.50;;
25123;SDS011;13104;51.030;4.686;2023-04-03T09:28:32;8.13;;;2.60;;
25123;SDS011;13104;51.030;4.686;2023-04-03T09:31:00;8.70;;;2.95;;
25123;SDS011;13104;51.030;4.686;2023-04-03T09:33:26;6.78;;;2.72;;
25123;SDS011;13104;51.030;4.686;2023-04-03T09:35:54;6.75;;;2.58;;
25123;SDS011;13104;51.030;4.686;2023-04-03T09:38:21;3.92;;;2.03;;
25123;SDS011;13104;51.030;4.686;2023-04-03T09:40:48;6.68;;;2.40;;
25123;SDS011;13104;51.030;4.686;2023-04-03T09:43:23;7.47;;;2.50;;
25123;SDS011;13104;51.030;4.686;2023-04-03T09:45:50;8.23;;;3.03;;
25123;SDS011;13104;51.030;4.686;2023-04-03T09:48:24;5.82;;;2.53;;
25123;SDS011;13104;51.030;4.686;2023-04-03T09:55:51;7.15;;;2.47;;
25123;SDS011;13104;51.030;4.686;2023-04-03T09:58:25;8.15;;;2.53;;
25123;SDS011;13104;51.030;4.686;2023-04-03T10:00:58;8.38;;;2.80;;
25123;SDS011;13104;51.030;4.686;2023-04-03T10:03:29;7.15;;;2.35;;
25123;SDS011;13104;51.030;4.686;2023-04-03T10:05:57;7.43;;;2.30;;
25123;SDS011;13104;51.030;4.686;2023-04-03T10:11:35;9.32;;;2.30;;
25123;SDS011;13104;51.030;4.686;2023-04-03T10:13:54;4.75;;;2.20;;
25123;SDS011;13104;51.030;4.686;2023-04-03T10:16:44;4.57;;;2.13;;
25123;SDS011;13104;51.030;4.686;2023-04-03T10:34:24;2.65;;;1.60;;
25123;SDS011;13104;51.030;4.686;2023-04-03T10:37:14;5.97;;;1.90;;
25123;SDS011;13104;51.030;4.686;2023-04-03T10:39:46;6.15;;;2.35;;
25123;SDS011;13104;51.030;4.686;2023-04-03T10:52:43;8.50;;;2.38;;
25123;SDS011;13104;51.030;4.686;2023-04-03T10:55:31;6.20;;;2.03;;
25123;SDS011;13104;51.030;4.686;2023-04-03T10:57:59;8.05;;;2.22;;
25123;SDS011;13104;51.030;4.686;2023-04-03T11:00:38;5.28;;;2.42;;
25123;SDS011;13104;51.030;4.686;2023-04-03T11:03:08;6.00;;;2.22;;
25123;SDS011;13104;51.030;4.686;2023-04-03T11:05:42;6.75;;;2.00;;
25123;SDS011;13104;51.030;4.686;2023-04-03T11:11:04;8.00;;;2.00;;
25123;SDS011;13104;51.030;4.686;2023-04-03T11:13:46;5.32;;;1.80;;
25123;SDS011;13104;51.030;4.686;2023-04-03T11:16:15;2.67;;;1.55;;
25123;SDS011;13104;51.030;4.686;2023-04-03T11:18:48;3.30;;;1.60;;
25123;SDS011;13104;51.030;4.686;2023-04-03T11:21:17;4.85;;;1.85;;
25123;SDS011;13104;51.030;4.686;2023-04-03T11:23:46;4.80;;;1.92;;
25123;SDS011;13104;51.030;4.686;2023-04-03T11:26:14;4.18;;;1.60;;
25123;SDS011;13104;51.030;4.686;2023-04-03T11:28:41;2.88;;;1.55;;
25123;SDS011;13104;51.030;4.686;2023-04-03T11:38:33;5.93;;;2.17;;
25123;SDS011;13104;51.030;4.686;2023-04-03T11:41:02;5.28;;;1.70;;
25123;SDS011;13104;51.030;4.686;2023-04-03T11:43:29;5.50;;;1.85;;
25123;SDS011;13104;51.030;4.686;2023-04-03T11:45:59;4.40;;;1.83;;
25123;SDS011;13104;51.030;4.686;2023-04-03T11:50:54;5.45;;;1.35;;
25123;SDS011;13104;51.030;4.686;2023-04-03T11:53:54;4.38;;;1.63;;
25123;SDS011;13104;51.030;4.686;2023-04-03T12:04:15;2.35;;;1.52;;
25123;SDS011;13104;51.030;4.686;2023-04-03T12:11:54;5.78;;;1.80;;
25123;SDS011;13104;51.030;4.686;2023-04-03T12:14:24;6.20;;;1.70;;
25123;SDS011;13104;51.030;4.686;2023-04-03T12:16:52;3.58;;;1.60;;
25123;SDS011;13104;51.030;4.686;2023-04-03T12:19:35;3.47;;;1.50;;
25123;SDS011;13104;51.030;4.686;2023-04-03T12:24:29;6.10;;;1.88;;
25123;SDS011;13104;51.030;4.686;2023-04-03T12:29:27;4.72;;;1.80;;
25123;SDS011;13104;51.030;4.686;2023-04-03T12:37:29;4.90;;;2.00;;
25123;SDS011;13104;51.030;4.686;2023-04-03T12:39:52;3.95;;;1.50;;
25123;SDS011;13104;51.030;4.686;2023-04-03T12:42:26;4.28;;;1.88;;
25123;SDS011;13104;51.030;4.686;2023-04-03T12:45:10;4.90;;;1.98;;
25123;SDS011;13104;51.030;4.686;2023-04-03T12:47:39;5.30;;;1.88;;
25123;SDS011;13104;51.030;4.686;2023-04-03T12:52:44;7.18;;;1.88;;
25123;SDS011;13104;51.030;4.686;2023-04-03T12:55:15;3.95;;;2.03;;
25123;SDS011;13104;51.030;4.686;2023-04-03T12:57:41;6.38;;;2.10;;
25123;SDS011;13104;51.030;4.686;2023-04-03T13:00:28;7.40;;;2.17;;
25123;SDS011;13104;51.030;4.686;2023-04-03T13:02:55;6.10;;;1.75;;
25123;SDS011;13104;51.030;4.686;2023-04-03T13:05:21;5.82;;;2.17;;
25123;SDS011;13104;51.030;4.686;2023-04-03T13:07:49;3.53;;;2.00;;
25123;SDS011;13104;51.030;4.686;2023-04-03T13:10:18;4.30;;;2.30;;
25123;SDS011;13104;51.030;4.686;2023-04-03T13:12:49;6.47;;;2.08;;
25123;SDS011;13104;51.030;4.686;2023-04-03T13:15:20;6.28;;;2.33;;
25123;SDS011;13104;51.030;4.686;2023-04-03T13:17:48;4.88;;;1.98;;
25123;SDS011;13104;51.030;4.686;2023-04-03T13:22:48;2.85;;;1.70;;
25123;SDS011;13104;51.030;4.686;2023-04-03T13:25:15;7.18;;;1.95;;
25123;SDS011;13104;51.030;4.686;2023-04-03T13:27:42;3.17;;;1.95;;
25123;SDS011;13104;51.030;4.686;2023-04-03T13:30:26;4.90;;;2.10;;
25123;SDS011;13104;51.030;4.686;2023-04-03T13:32:54;6.77;;;1.80;;
25123;SDS011;13104;51.030;4.686;2023-04-03T13:35:29;5.63;;;1.95;;
25123;SDS011;13104;51.030;4.686;2023-04-03T13:37:56;4.60;;;1.58;;
25123;SDS011;13104;51.030;4.686;2023-04-03T13:40:23;6.28;;;1.92;;
25123;SDS011;13104;51.030;4.686;2023-04-03T13:42:59;5.75;;;2.10;;
25123;SDS011;13104;51.030;4.686;2023-04-03T13:45:27;4.88;;;1.75;;
25123;SDS011;13104;51.030;4.686;2023-04-03T13:50:54;4.13;;;1.60;;
25123;SDS011;13104;51.030;4.686;2023-04-03T13:53:21;6.68;;;1.90;;
25123;SDS011;13104;51.030;4.686;2023-04-03T13:56:05;6.75;;;1.88;;
25123;SDS011;13104;51.030;4.686;2023-04-03T13:58:32;2.78;;;1.50;;
25123;SDS011;13104;51.030;4.686;2023-04-03T14:01:10;3.30;;;1.55;;
25123;SDS011;13104;51.030;4.686;2023-04-03T14:06:06;3.92;;;1.60;;
25123;SDS011;13104;51.030;4.686;2023-04-03T14:08:32;11.23;;;2.00;;
25123;SDS011;13104;51.030;4.686;2023-04-03T14:10:58;3.55;;;1.70;;
25123;SDS011;13104;51.030;4.686;2023-04-03T14:13:25;3.08;;;1.70;;
25123;SDS011;13104;51.030;4.686;2023-04-03T14:15:51;3.38;;;1.40;;
25123;SDS011;13104;51.030;4.686;2023-04-03T14:18:18;4.20;;;1.83;;
25123;SDS011;13104;51.030;4.686;2023-04-03T14:20:45;4.40;;;1.58;;
25123;SDS011;13104;51.030;4.686;2023-04-03T14:23:12;4.20;;;1.40;;
25123;SDS011;13104;51.030;4.686;2023-04-03T14:25:38;1.90;;;1.52;;
25123;SDS011;13104;51.030;4.686;2023-04-03T14:28:13;4.45;;;1.65;;
25123;SDS011;13104;51.030;4.686;2023-04-03T14:30:40;2.30;;;1.50;;
25123;SDS011;13104;51.030;4.686;2023-04-03T14:33:09;5.85;;;1.60;;
25123;SDS011;13104;51.030;4.686;2023-04-03T14:35:36;3.65;;;1.65;;
25123;SDS011;13104;51.030;4.686;2023-04-03T14:38:04;8.00;;;1.85;;
25123;SDS011;13104;51.030;4.686;2023-04-03T14:40:31;4.15;;;1.88;;
25123;SDS011;13104;51.030;4.686;2023-04-03T14:42:57;4.60;;;2.20;;
25123;SDS011;13104;51.030;4.686;2023-04-03T14:45:24;3.28;;;1.38;;
25123;SDS011;13104;51.030;4.686;2023-04-03T14:47:52;4.90;;;1.85;;
25123;SDS011;13104;51.030;4.686;2023-04-03T14:50:20;7.25;;;1.67;;
25123;SDS011;13104;51.030;4.686;2023-04-03T14:52:47;4.00;;;1.58;;
25123;SDS011;13104;51.030;4.686;2023-04-03T14:55:14;5.32;;;2.05;;
25123;SDS011;13104;51.030;4.686;2023-04-03T14:57:41;4.32;;;1.58;;
25123;SDS011;13104;51.030;4.686;2023-04-03T15:00:07;6.00;;;1.90;;
25123;SDS011;13104;51.030;4.686;2023-04-03T15:02:36;4.28;;;1.70;;
25123;SDS011;13104;51.030;4.686;2023-04-03T15:05:04;3.00;;;1.48;;
25123;SDS011;13104;51.030;4.686;2023-04-03T15:07:32;4.85;;;1.73;;
25123;SDS011;13104;51.030;4.686;2023-04-03T15:10:02;3.83;;;1.85;;
25123;SDS011;13104;51.030;4.686;2023-04-03T15:12:28;7.35;;;2.05;;
25123;SDS011;13104;51.030;4.686;2023-04-03T15:14:55;6.97;;;1.67;;
25123;SDS011;13104;51.030;4.686;2023-04-03T15:17:21;4.60;;;1.80;;
25123;SDS011;13104;51.030;4.686;2023-04-03T15:19:48;2.60;;;1.58;;
25123;SDS011;13104;51.030;4.686;2023-04-03T15:22:20;2.55;;;1.75;;
25123;SDS011;13104;51.030;4.686;2023-04-03T15:24:46;5.80;;;2.03;;
25123;SDS011;13104;51.030;4.686;2023-04-03T15:27:13;2.85;;;1.60;;
25123;SDS011;13104;51.030;4.686;2023-04-03T15:29:40;3.95;;;1.95;;
25123;SDS011;13104;51.030;4.686;2023-04-03T15:32:07;2.53;;;1.50;;
25123;SDS011;13104;51.030;4.686;2023-04-03T15:34:33;4.60;;;1.73;;
25123;SDS011;13104;51.030;4.686;2023-04-03T15:37:00;3.10;;;1.75;;
25123;SDS011;13104;51.030;4.686;2023-04-03T15:39:26;5.75;;;2.05;;
25123;SDS011;13104;51.030;4.686;2023-04-03T15:41:52;4.80;;;1.90;;
25123;SDS011;13104;51.030;4.686;2023-04-03T15:44:19;5.22;;;1.90;;
25123;SDS011;13104;51.030;4.686;2023-04-03T15:46:46;2.97;;;1.67;;
25123;SDS011;13104;51.030;4.686;2023-04-03T15:49:13;4.30;;;1.88;;
25123;SDS011;13104;51.030;4.686;2023-04-03T15:51:40;4.18;;;1.70;;
25123;SDS011;13104;51.030;4.686;2023-04-03T15:54:06;4.97;;;1.92;;
25123;SDS011;13104;51.030;4.686;2023-04-03T15:56:33;3.03;;;1.70;;
25123;SDS011;13104;51.030;4.686;2023-04-03T15:58:59;2.42;;;1.60;;
25123;SDS011;13104;51.030;4.686;2023-04-03T16:01:25;5.10;;;1.90;;
25123;SDS011;13104;51.030;4.686;2023-04-03T16:03:51;7.00;;;2.70;;
25123;SDS011;13104;51.030;4.686;2023-04-03T16:06:18;56.05;;;25.17;;
25123;SDS011;13104;51.030;4.686;2023-04-03T16:08:44;25.63;;;12.30;;
25123;SDS011;13104;51.030;4.686;2023-04-03T16:11:12;5.70;;;2.88;;
25123;SDS011;13104;51.030;4.686;2023-04-03T16:13:38;5.63;;;2.92;;
25123;SDS011;13104;51.030;4.686;2023-04-03T16:16:04;6.53;;;2.67;;
25123;SDS011;13104;51.030;4.686;2023-04-03T16:18:30;2.95;;;1.92;;
25123;SDS011;13104;51.030;4.686;2023-04-03T16:20:57;4.53;;;2.30;;
25123;SDS011;13104;51.030;4.686;2023-04-03T16:23:23;3.72;;;2.10;;
25123;SDS011;13104;51.030;4.686;2023-04-03T16:25:49;2.75;;;1.73;;